Terminal Aerodrome Forecast
Issued by NWS St Louis, MO

Home | Current Version | Previous Version | Text Only | Print | Product List | Glossary On
Versions: 1 2 3 4 5 6 7 8 9 10 11 12 13 14
769
FTUS43 KLSX 251135
TAFCOU
TAF
KCOU 251135Z 2512/2612 20005KT P6SM SCT250
     FM251600 26008KT P6SM VCSH SCT050
     FM252000 30009KT 6SM -SHRA VCTS OVC035CB
     FM260100 30009KT P6SM OVC050
     FM260700 32006KT P6SM SCT200=

USA.gov is the U.S. government's official web portal to all federal, state and local government web resources and services.